Aviation Digital Data Service (ADDS)

Output produced by METARs form (1718 UTC 23 September 2020)
found at http://aviationweather.gov/metar/data/
 
KAEX 231710Z 05009G18KT 1 1/2SM +RA BR SCT008 BKN014 OVC041 22/21 A2981 RMK AO2 P0008 T02220211
KAEX 231700Z 04009G16KT 2SM +RA BR SCT008 BKN014 OVC050 22/21 A2980 RMK AO2 P0003 T02220211
KAEX 231653Z 06009KT 3SM RA BR OVC008 22/21 A2980 RMK AO2 LTG DSNT S RAB24 SLP095 P0005 T02220211
KAEX 231625Z 05008KT 7SM -RA OVC008 22/21 A2982 RMK AO2 RAB24 P0000 T02220211 $
KAEX 231548Z 2316/2412 09010KT 4SM -RA BR BKN009 OVC013 
     TEMPO 2316/2320 VRB10G18KT 1SM +SHRA OVC007 
     FM240000 02010G15KT P6SM VCSH OVC015 
     FM240600 02011KT P6SM OVC007